Time;durP1;ratioP1;P1;durP2;ratioP2;P2;SDS_P1;SDS_P2;PMS_P1;PMS_P2;Temp;Humidity;BMP_temperature;BMP_pressure;BME280_temperature;BME280_humidity;BME280_pressure;Samples;Min_cycle;Max_cycle;Signal;HPM_P1;HPM_P2
2022/09/14 00:00:30;;;;;;;9.13;4.75;;;17.00;99.90;;;;;;5041560;28;20107;-53
2022/09/14 00:02:56;;;;;;;6.65;4.00;;;17.00;99.90;;;;;;5042571;28;20164;-53
2022/09/14 00:05:22;;;;;;;9.13;4.10;;;17.00;99.90;;;;;;5040926;28;20486;-53
2022/09/14 00:07:48;;;;;;;8.20;4.28;;;16.90;99.90;;;;;;5023456;28;20029;-53
2022/09/14 00:10:13;;;;;;;6.45;4.28;;;16.90;99.90;;;;;;5039028;28;20037;-53
2022/09/14 00:12:39;;;;;;;6.03;3.63;;;16.90;99.90;;;;;;5039833;28;20029;-53
2022/09/14 00:15:06;;;;;;;7.15;3.60;;;16.90;99.90;;;;;;5039036;28;20098;-53
2022/09/14 00:17:32;;;;;;;7.00;4.43;;;17.00;99.90;;;;;;5041695;28;20033;-53
2022/09/14 00:20:00;;;;;;;8.20;4.25;;;16.90;99.90;;;;;;5039276;28;20032;-53
2022/09/14 00:22:26;;;;;;;9.48;4.50;;;16.90;99.90;;;;;;5039632;28;20408;-53
2022/09/14 00:24:52;;;;;;;8.98;4.88;;;16.80;99.90;;;;;;5038570;28;20025;-53
2022/09/14 00:27:18;;;;;;;6.28;4.07;;;16.90;99.90;;;;;;5040684;28;20037;-53
2022/09/14 00:29:43;;;;;;;5.43;3.75;;;16.80;99.90;;;;;;5045596;28;20102;-53
2022/09/14 00:32:09;;;;;;;7.78;3.80;;;16.80;99.90;;;;;;5050275;28;20086;-54
2022/09/14 00:34:34;;;;;;;7.22;3.90;;;16.80;99.90;;;;;;5050177;28;20025;-53
2022/09/14 00:37:00;;;;;;;9.23;3.88;;;16.80;99.90;;;;;;5050385;28;20071;-53
2022/09/14 00:39:27;;;;;;;7.50;3.83;;;16.80;99.90;;;;;;5049960;28;20036;-53
2022/09/14 00:41:53;;;;;;;9.07;3.83;;;16.80;99.90;;;;;;5049963;28;20029;-53
2022/09/14 00:44:18;;;;;;;9.35;3.70;;;16.80;99.90;;;;;;5050207;28;20024;-54
2022/09/14 00:46:50;;;;;;;6.32;4.00;;;16.80;99.90;;;;;;5050018;28;20028;-53
2022/09/14 00:49:23;;;;;;;6.35;3.15;;;16.80;99.90;;;;;;5049944;28;20033;-53
2022/09/14 00:52:02;;;;;;;8.82;3.88;;;16.80;99.90;;;;;;5050003;28;20021;-53
2022/09/14 00:54:29;;;;;;;7.15;4.07;;;16.80;99.90;;;;;;5049653;28;20013;-53
2022/09/14 00:56:58;;;;;;;6.57;4.43;;;16.80;99.90;;;;;;5049631;28;20044;-53
2022/09/14 00:59:28;;;;;;;8.57;4.15;;;16.80;99.90;;;;;;5050090;28;20017;-54
2022/09/14 01:01:53;;;;;;;7.20;4.00;;;16.70;99.90;;;;;;5046502;28;20026;-53
2022/09/14 01:04:21;;;;;;;8.20;4.25;;;16.70;99.90;;;;;;5039132;28;20036;-53
2022/09/14 01:07:11;;;;;;;9.23;4.38;;;16.70;99.90;;;;;;5031339;28;20072;-53
2022/09/14 01:10:07;;;;;;;10.00;4.95;;;16.70;99.90;;;;;;5038990;28;20033;-53
2022/09/14 01:12:54;;;;;;;6.65;4.22;;;16.70;99.90;;;;;;5035199;28;20036;-53
2022/09/14 01:15:53;;;;;;;5.70;3.75;;;16.70;99.90;;;;;;5030110;28;20098;-54
2022/09/14 01:18:30;;;;;;;;;;;16.60;99.90;;;;;;5040295;28;20079;-53
2022/09/14 01:21:21;;;;;;;12.15;5.20;;;16.50;99.90;;;;;;5037335;28;19974;-53
2022/09/14 01:24:02;;;;;;;7.05;3.72;;;16.50;99.90;;;;;;5038687;28;20025;-54
2022/09/14 01:26:46;;;;;;;8.35;4.13;;;16.50;99.90;;;;;;5036149;28;20039;-53
2022/09/14 01:29:32;;;;;;;8.07;4.10;;;16.50;99.90;;;;;;5049419;28;20064;-54
2022/09/14 01:32:01;;;;;;;6.85;3.83;;;16.50;99.90;;;;;;5049459;28;20029;-54
2022/09/14 01:34:26;;;;;;;7.85;4.22;;;16.40;99.90;;;;;;5049552;28;20636;-53
2022/09/14 01:36:58;;;;;;;11.27;4.72;;;16.40;99.90;;;;;;5049097;28;20037;-53
2022/09/14 01:39:26;;;;;;;7.18;3.92;;;16.40;99.90;;;;;;5049278;28;20064;-53
2022/09/14 01:41:53;;;;;;;6.93;4.18;;;16.40;99.90;;;;;;5033008;28;20033;-53
2022/09/14 01:44:26;;;;;;;7.38;4.28;;;16.40;99.90;;;;;;5029311;28;20100;-54
2022/09/14 01:47:01;;;;;;;8.18;4.18;;;16.40;99.90;;;;;;5029423;28;20036;-53
2022/09/14 01:49:37;;;;;;;6.10;3.65;;;16.40;99.90;;;;;;5029310;28;20366;-53
2022/09/14 01:52:13;;;;;;;7.47;3.65;;;16.40;99.90;;;;;;5029781;28;20064;-53
2022/09/14 01:54:51;;;;;;;5.90;3.50;;;16.30;99.90;;;;;;5029425;28;20022;-54
2022/09/14 01:57:22;;;;;;;6.18;3.63;;;16.30;99.90;;;;;;5029300;28;20022;-54
2022/09/14 01:59:52;;;;;;;13.02;5.28;;;16.20;99.90;;;;;;5029234;28;20094;-54
2022/09/14 02:02:29;;;;;;;6.22;3.95;;;16.20;99.90;;;;;;5029196;28;20133;-52
2022/09/14 02:05:11;;;;;;;5.68;3.72;;;16.20;99.90;;;;;;5029446;28;20025;-53
2022/09/14 02:07:37;;;;;;;7.30;4.40;;;16.10;99.90;;;;;;5029798;28;20057;-53
2022/09/14 02:10:06;;;;;;;9.50;4.47;;;16.10;99.90;;;;;;5010996;28;20029;-53
2022/09/14 02:12:32;;;;;;;7.65;4.10;;;16.10;99.90;;;;;;5029391;28;20075;-53
2022/09/14 02:14:58;;;;;;;7.93;4.18;;;16.10;99.90;;;;;;5028988;28;20029;-53
2022/09/14 02:17:23;;;;;;;10.65;4.00;;;16.00;99.90;;;;;;5029215;28;20466;-53
2022/09/14 02:19:54;;;;;;;8.75;4.00;;;16.00;99.90;;;;;;5011508;28;20033;-53
2022/09/14 02:22:21;;;;;;;8.32;4.30;;;16.00;99.90;;;;;;5028954;28;20797;-53
2022/09/14 02:24:48;;;;;;;9.38;4.50;;;15.90;99.90;;;;;;5029228;28;20025;-54
2022/09/14 02:27:13;;;;;;;7.97;4.10;;;15.90;99.90;;;;;;5028930;28;20033;-54
2022/09/14 02:29:39;;;;;;;7.28;3.97;;;15.80;99.90;;;;;;5028862;28;20032;-53
2022/09/14 02:32:08;;;;;;;8.25;4.40;;;15.80;99.90;;;;;;5029300;28;20029;-53
2022/09/14 02:34:39;;;;;;;6.63;4.25;;;15.80;99.90;;;;;;5028220;28;20026;-53
2022/09/14 02:37:15;;;;;;;12.80;4.60;;;15.80;99.90;;;;;;5029425;28;20404;-53
2022/09/14 02:40:19;;;;;;;8.35;4.22;;;15.80;99.90;;;;;;5028821;28;20032;-54
2022/09/14 02:43:09;;;;;;;6.93;4.28;;;15.80;99.90;;;;;;5008392;28;20042;-54
2022/09/14 02:45:52;;;;;;;7.22;4.32;;;15.90;99.90;;;;;;5029082;28;20026;-54
2022/09/14 02:49:00;;;;;;;8.23;4.30;;;15.80;99.90;;;;;;5030783;28;20488;-53
2022/09/14 02:51:30;;;;;;;6.60;4.40;;;15.80;99.90;;;;;;5032328;28;20045;-54
2022/09/14 02:54:09;;;;;;;7.50;4.63;;;15.80;99.90;;;;;;5032610;28;20590;-54
2022/09/14 02:56:36;;;;;;;6.65;3.83;;;15.80;99.90;;;;;;5045875;28;20498;-53
2022/09/14 02:59:02;;;;;;;9.48;4.43;;;15.80;99.90;;;;;;5052206;28;20551;-53
2022/09/14 03:01:28;;;;;;;8.65;4.57;;;15.70;99.90;;;;;;5051932;28;20037;-54
2022/09/14 03:03:54;;;;;;;7.13;4.53;;;15.70;99.90;;;;;;5052114;28;20037;-53
2022/09/14 03:06:19;;;;;;;8.93;5.10;;;15.70;99.90;;;;;;5052128;28;20036;-54
2022/09/14 03:08:45;;;;;;;9.23;4.57;;;15.70;99.90;;;;;;5051904;28;20028;-54
2022/09/14 03:11:11;;;;;;;8.05;5.07;;;15.80;99.90;;;;;;5030631;28;20423;-54
2022/09/14 03:13:37;;;;;;;7.38;4.47;;;15.70;99.90;;;;;;5032407;28;20424;-54
2022/09/14 03:16:08;;;;;;;11.13;5.15;;;15.80;99.90;;;;;;5032330;28;20037;-53
2022/09/14 03:18:35;;;;;;;8.45;4.55;;;15.70;99.90;;;;;;5031595;28;20030;-53
2022/09/14 03:21:05;;;;;;;7.00;4.40;;;15.70;99.90;;;;;;5031863;28;20041;-54
2022/09/14 03:23:35;;;;;;;6.45;4.78;;;15.70;99.90;;;;;;5030457;28;20060;-53
2022/09/14 03:26:04;;;;;;;9.60;4.32;;;15.70;99.90;;;;;;5023958;28;20022;-54
2022/09/14 03:28:30;;;;;;;10.80;4.93;;;15.80;99.90;;;;;;5031666;28;20091;-54
2022/09/14 03:31:00;;;;;;;8.40;5.45;;;15.70;99.90;;;;;;5013835;28;20022;-53
2022/09/14 03:33:26;;;;;;;11.35;5.13;;;15.70;99.90;;;;;;5031912;28;20037;-53
2022/09/14 03:35:51;;;;;;;11.68;5.75;;;15.70;99.90;;;;;;5031645;28;20022;-54
2022/09/14 03:38:18;;;;;;;13.23;6.10;;;15.60;99.90;;;;;;5031425;28;20029;-53
2022/09/14 03:40:44;;;;;;;9.77;5.97;;;15.60;99.90;;;;;;5031350;28;20579;-53
2022/09/14 03:43:11;;;;;;;10.02;5.57;;;15.60;99.90;;;;;;5031581;28;20128;-53
2022/09/14 03:45:37;;;;;;;9.35;5.05;;;15.50;99.90;;;;;;5031171;28;20026;-54
2022/09/14 03:48:04;;;;;;;9.52;5.40;;;15.50;99.90;;;;;;5030136;28;20033;-53
2022/09/14 03:50:30;;;;;;;8.68;5.28;;;15.50;99.90;;;;;;5030987;28;20685;-54
2022/09/14 03:52:56;;;;;;;7.63;5.50;;;15.50;99.90;;;;;;5031326;28;20076;-54
2022/09/14 03:55:22;;;;;;;8.05;5.32;;;15.40;99.90;;;;;;5031304;28;20025;-54
2022/09/14 03:57:47;;;;;;;9.85;5.15;;;15.40;99.90;;;;;;5031058;28;20033;-54
2022/09/14 04:00:14;;;;;;;7.07;4.20;;;15.40;99.90;;;;;;5031019;28;20021;-53
2022/09/14 04:02:40;;;;;;;8.25;5.32;;;15.40;99.90;;;;;;5031003;28;20041;-54
2022/09/14 04:05:06;;;;;;;7.38;4.53;;;15.30;99.90;;;;;;5031165;28;20025;-53
2022/09/14 04:07:32;;;;;;;7.63;4.50;;;15.30;99.90;;;;;;5013215;28;20033;-53
2022/09/14 04:09:58;;;;;;;9.65;5.43;;;15.30;99.90;;;;;;5030656;28;20104;-53
2022/09/14 04:12:23;;;;;;;8.85;5.22;;;15.20;99.90;;;;;;5031059;28;20025;-54
2022/09/14 04:14:49;;;;;;;10.77;6.15;;;15.30;99.90;;;;;;5030974;28;20048;-54
2022/09/14 04:17:16;;;;;;;7.72;5.28;;;15.20;99.90;;;;;;5030847;28;20033;-54
2022/09/14 04:19:42;;;;;;;8.02;5.10;;;15.20;99.90;;;;;;5030621;28;20029;-54
2022/09/14 04:22:07;;;;;;;10.00;5.68;;;15.20;99.90;;;;;;5030461;28;20051;-54
2022/09/14 04:24:33;;;;;;;8.85;5.28;;;15.20;99.90;;;;;;5036224;28;20044;-54
2022/09/14 04:26:59;;;;;;;9.32;6.03;;;15.20;99.90;;;;;;5045918;28;20459;-53
2022/09/14 04:29:25;;;;;;;12.10;5.60;;;15.10;99.90;;;;;;5046195;28;20071;-54
2022/09/14 04:31:51;;;;;;;11.02;6.75;;;15.10;99.90;;;;;;5043685;28;20448;-54
2022/09/14 04:34:16;;;;;;;12.48;5.85;;;15.10;99.90;;;;;;5032451;28;20037;-54
2022/09/14 04:36:42;;;;;;;11.98;6.03;;;15.10;99.90;;;;;;5030080;28;20037;-54
2022/09/14 04:39:11;;;;;;;9.88;5.53;;;15.00;99.90;;;;;;5044820;28;20508;-53
2022/09/14 04:41:36;;;;;;;12.73;5.70;;;15.00;99.90;;;;;;5040212;28;20024;-53
2022/09/14 04:44:02;;;;;;;8.85;5.55;;;15.10;99.90;;;;;;5024035;28;20021;-54
2022/09/14 04:46:32;;;;;;;10.70;6.22;;;15.00;99.90;;;;;;5039461;28;20024;-54
2022/09/14 04:48:58;;;;;;;9.15;5.32;;;15.00;99.90;;;;;;5040841;28;20029;-53
2022/09/14 04:51:28;;;;;;;9.85;5.72;;;15.10;99.90;;;;;;5022329;28;20030;-53
2022/09/14 04:53:55;;;;;;;11.77;5.45;;;15.10;99.90;;;;;;5042523;28;20555;-54
2022/09/14 04:56:21;;;;;;;;;;;15.10;99.90;;;;;;5039309;28;20031;-53
2022/09/14 04:58:50;;;;;;;11.63;5.85;;;15.20;99.90;;;;;;5039409;28;19905;-53
2022/09/14 05:01:22;;;;;;;8.27;5.57;;;15.20;99.90;;;;;;5042602;28;20057;-53
2022/09/14 05:03:49;;;;;;;11.27;6.82;;;15.20;99.90;;;;;;5041160;28;20041;-54
2022/09/14 05:06:17;;;;;;;8.85;5.82;;;15.30;99.90;;;;;;5045677;28;20812;-52
2022/09/14 05:08:44;;;;;;;11.55;6.63;;;15.30;99.90;;;;;;5019640;28;20033;-53
2022/09/14 05:11:13;;;;;;;10.57;6.38;;;15.30;99.90;;;;;;5038022;28;20017;-53
2022/09/14 05:13:40;;;;;;;14.20;6.60;;;15.30;99.90;;;;;;5039630;28;20024;-53
2022/09/14 05:16:19;;;;;;;12.73;7.43;;;15.30;99.90;;;;;;5039305;28;20028;-53
2022/09/14 05:18:46;;;;;;;12.32;6.32;;;15.30;99.90;;;;;;5040373;28;20039;-53
2022/09/14 05:21:14;;;;;;;12.37;6.80;;;15.30;99.90;;;;;;5039876;28;20136;-54
2022/09/14 05:23:41;;;;;;;10.25;6.90;;;15.40;99.90;;;;;;5038319;28;20040;-54
2022/09/14 05:26:07;;;;;;;11.30;6.32;;;15.30;99.90;;;;;;5041818;28;20022;-54
2022/09/14 05:28:33;;;;;;;12.35;6.80;;;15.40;99.90;;;;;;5036506;28;20025;-53
2022/09/14 05:31:03;;;;;;;15.13;6.70;;;15.30;99.90;;;;;;5038503;28;20022;-53
2022/09/14 05:33:29;;;;;;;11.57;6.53;;;15.40;99.90;;;;;;5032421;28;20029;-53
2022/09/14 05:36:00;;;;;;;10.25;6.57;;;15.40;99.90;;;;;;5028841;28;20035;-53
2022/09/14 05:38:31;;;;;;;10.48;6.00;;;15.50;99.90;;;;;;5035874;28;20025;-53
2022/09/14 05:40:56;;;;;;;11.88;6.00;;;15.50;99.90;;;;;;5033012;28;20029;-53
2022/09/14 05:43:23;;;;;;;13.38;5.97;;;15.60;99.90;;;;;;5028752;28;20039;-52
2022/09/14 05:45:49;;;;;;;9.18;6.07;;;15.70;99.90;;;;;;5042971;28;20057;-52
2022/09/14 05:48:16;;;;;;;9.70;6.20;;;15.70;99.90;;;;;;5038012;28;20519;-52
2022/09/14 05:50:42;;;;;;;12.30;6.32;;;15.80;99.90;;;;;;5037332;28;20025;-52
2022/09/14 05:53:08;;;;;;;10.10;5.13;;;15.90;99.90;;;;;;5033949;28;20443;-53
2022/09/14 05:55:33;;;;;;;10.55;5.88;;;15.90;99.90;;;;;;5028484;28;20105;-52
2022/09/14 05:57:59;;;;;;;12.63;5.65;;;16.00;99.90;;;;;;5028811;28;20029;-53
2022/09/14 06:00:26;;;;;;;10.55;5.50;;;16.00;99.90;;;;;;5030641;28;20547;-52
2022/09/14 06:02:53;;;;;;;11.40;5.10;;;16.00;99.90;;;;;;5047848;28;20044;-52
2022/09/14 06:05:20;;;;;;;9.90;5.40;;;16.10;99.90;;;;;;5030594;28;20074;-52
2022/09/14 06:07:53;;;;;;;15.90;6.47;;;16.20;99.90;;;;;;5029113;28;20051;-52
2022/09/14 06:10:20;;;;;;;11.07;5.82;;;16.30;99.90;;;;;;5044173;28;20528;-52
2022/09/14 06:12:46;;;;;;;12.43;5.57;;;16.40;99.90;;;;;;5028423;28;20029;-52
2022/09/14 06:15:11;;;;;;;9.02;5.00;;;16.50;99.90;;;;;;5010722;28;20484;-54
2022/09/14 06:17:37;;;;;;;11.10;5.60;;;16.50;99.90;;;;;;5010512;28;20544;-53
2022/09/14 06:20:06;;;;;;;11.13;5.65;;;16.60;99.90;;;;;;5026645;28;20051;-53
2022/09/14 06:22:32;;;;;;;12.35;6.38;;;16.70;99.90;;;;;;5029047;28;20053;-53
2022/09/14 06:24:57;;;;;;;12.48;5.93;;;16.80;99.90;;;;;;5029023;28;20037;-53
2022/09/14 06:27:23;;;;;;;11.05;6.45;;;16.80;99.90;;;;;;5029111;28;20055;-54
2022/09/14 06:29:52;;;;;;;9.80;5.80;;;16.90;99.90;;;;;;5029182;28;20109;-53
2022/09/14 06:32:18;;;;;;;11.63;5.55;;;17.00;99.90;;;;;;5029144;28;20112;-53
2022/09/14 06:34:45;;;;;;;9.13;6.13;;;17.00;99.90;;;;;;5029543;28;20021;-53
2022/09/14 06:37:11;;;;;;;10.00;5.22;;;17.10;99.90;;;;;;5029340;28;20021;-53
2022/09/14 06:39:37;;;;;;;9.40;5.28;;;17.20;99.90;;;;;;5011959;28;20120;-53
2022/09/14 06:42:02;;;;;;;11.18;6.15;;;17.20;99.90;;;;;;5031250;28;20487;-53
2022/09/14 06:44:28;;;;;;;15.65;5.57;;;17.20;99.90;;;;;;5031774;28;20026;-53
2022/09/14 06:46:54;;;;;;;8.73;5.43;;;17.20;99.90;;;;;;5031681;28;20060;-53
2022/09/14 06:49:22;;;;;;;8.82;5.85;;;17.20;99.90;;;;;;5013711;28;20401;-54
2022/09/14 06:51:49;;;;;;;12.68;6.28;;;17.30;99.90;;;;;;5031632;28;20093;-53
2022/09/14 06:54:15;;;;;;;13.77;5.35;;;17.30;99.90;;;;;;5031973;28;20032;-53
2022/09/14 06:56:43;;;;;;;12.37;6.37;;;17.30;99.90;;;;;;5031326;28;20036;-53
2022/09/14 06:59:10;;;;;;;;;;;17.40;99.90;;;;;;5032025;28;20268;-53
2022/09/14 07:01:36;;;;;;;12.95;5.75;;;17.50;99.90;;;;;;5029983;28;20368;-53
2022/09/14 07:04:04;;;;;;;9.88;6.85;;;17.50;99.90;;;;;;5031668;28;20029;-53
2022/09/14 07:06:31;;;;;;;;;;;17.50;99.90;;;;;;5031864;28;20029;-55
2022/09/14 07:08:57;;;;;;;15.18;5.07;;;17.60;99.90;;;;;;5031117;28;20446;-53
2022/09/14 07:11:28;;;;;;;9.98;5.47;;;17.60;99.90;;;;;;5030835;28;20060;-53
2022/09/14 07:13:57;;;;;;;11.90;6.15;;;17.60;99.90;;;;;;5031228;28;20025;-53
2022/09/14 07:16:23;;;;;;;14.48;5.80;;;17.60;99.90;;;;;;5031138;28;20034;-53
2022/09/14 07:18:52;;;;;;;9.95;5.22;;;17.60;99.90;;;;;;5030768;28;20473;-53
2022/09/14 07:21:20;;;;;;;10.10;5.70;;;17.70;99.90;;;;;;5037657;28;20064;-53
2022/09/14 07:23:47;;;;;;;9.35;5.25;;;17.70;99.90;;;;;;5034087;28;20536;-53
2022/09/14 07:26:15;;;;;;;9.38;5.15;;;17.70;99.90;;;;;;5021758;28;20037;-53
2022/09/14 07:28:42;;;;;;;12.15;5.97;;;17.80;99.90;;;;;;5031063;28;20032;-53
2022/09/14 07:31:17;;;;;;;11.88;5.35;;;17.80;99.90;;;;;;5034808;28;20078;-53
2022/09/14 07:33:44;;;;;;;9.25;5.22;;;17.80;99.90;;;;;;5030251;28;20491;-53
2022/09/14 07:36:11;;;;;;;11.15;5.70;;;17.80;99.90;;;;;;5039754;28;20025;-53
2022/09/14 07:38:37;;;;;;;;;;;17.90;99.90;;;;;;5043853;28;20091;-53
2022/09/14 07:41:03;;;;;;;11.32;5.57;;;17.90;99.90;;;;;;5041862;28;19913;-53
2022/09/14 07:43:29;;;;;;;6.93;4.93;;;18.00;99.90;;;;;;5046760;28;20484;-54
2022/09/14 07:45:55;;;;;;;7.70;4.72;;;18.00;99.90;;;;;;5032348;28;20040;-53
2022/09/14 07:48:22;;;;;;;10.88;5.25;;;18.10;99.90;;;;;;5050752;28;20037;-53
2022/09/14 07:50:57;;;;;;;17.98;6.28;;;18.10;99.90;;;;;;5046181;28;20033;-53
2022/09/14 07:53:23;;;;;;;8.82;5.97;;;18.10;99.90;;;;;;5031172;28;20040;-54
2022/09/14 07:55:49;;;;;;;9.73;6.00;;;18.20;99.90;;;;;;5031045;28;20030;-53
2022/09/14 07:58:14;;;;;;;12.32;6.18;;;18.20;99.90;;;;;;5037184;28;20087;-54
2022/09/14 08:00:40;;;;;;;10.40;5.75;;;18.30;99.90;;;;;;5040019;28;20026;-54
2022/09/14 08:03:06;;;;;;;9.57;6.13;;;18.30;99.90;;;;;;5039120;28;21422;-54
2022/09/14 08:05:32;;;;;;;15.30;8.23;;;18.40;99.90;;;;;;5043700;28;20112;-53
2022/09/14 08:07:58;;;;;;;19.13;10.77;;;18.40;99.90;;;;;;5035024;28;20116;-54
2022/09/14 08:10:25;;;;;;;18.75;9.95;;;18.40;99.90;;;;;;5028126;28;20465;-53
2022/09/14 08:12:54;;;;;;;14.65;9.15;;;18.40;99.90;;;;;;5032077;28;20029;-53
2022/09/14 08:15:22;;;;;;;15.40;8.13;;;18.40;99.90;;;;;;5028727;28;20775;-53
2022/09/14 08:17:48;;;;;;;15.10;7.70;;;18.40;99.90;;;;;;5046886;28;20116;-53
2022/09/14 08:20:15;;;;;;;12.45;7.00;;;18.40;99.90;;;;;;5048548;28;20052;-53
2022/09/14 08:22:43;;;;;;;12.75;7.47;;;18.30;99.90;;;;;;5045884;28;20396;-53
2022/09/14 08:25:09;;;;;;;12.98;7.97;;;18.40;99.90;;;;;;5048593;28;20125;-52
2022/09/14 08:27:35;;;;;;;17.35;7.60;;;18.40;99.90;;;;;;5047104;28;20041;-52
2022/09/14 08:30:01;;;;;;;9.50;5.97;;;18.60;99.90;;;;;;5032162;28;20018;-52
2022/09/14 08:32:27;;;;;;;10.60;6.05;;;18.60;99.90;;;;;;5029323;28;20446;-52
2022/09/14 08:34:53;;;;;;;15.23;6.50;;;18.70;99.90;;;;;;5011794;28;20104;-52
2022/09/14 08:37:19;;;;;;;10.57;6.35;;;18.70;99.90;;;;;;5029179;28;20048;-53
2022/09/14 08:39:44;;;;;;;12.18;6.32;;;18.80;99.90;;;;;;5040600;28;20440;-53
2022/09/14 08:42:16;;;;;;;12.45;5.97;;;18.90;99.90;;;;;;5043944;28;20660;-52
2022/09/14 08:45:01;;;;;;;9.88;5.32;;;19.10;99.90;;;;;;5043410;28;20018;-53
2022/09/14 08:47:38;;;;;;;11.93;5.80;;;19.10;99.90;;;;;;5031443;28;20476;-53
2022/09/14 08:50:09;;;;;;;8.38;5.38;;;19.20;99.90;;;;;;5041687;28;20044;-51
2022/09/14 08:52:45;;;;;;;12.50;5.63;;;19.40;99.90;;;;;;5034073;28;20045;-51
2022/09/14 08:55:34;;;;;;;11.50;6.55;;;19.40;99.90;;;;;;5036464;28;20083;-51
2022/09/14 08:58:11;;;;;;;27.63;11.25;;;19.30;99.90;;;;;;5037461;28;20771;-51
2022/09/14 09:00:49;;;;;;;21.00;8.85;;;19.20;99.90;;;;;;5038043;28;20025;-52
2022/09/14 09:03:49;;;;;;;16.27;9.57;;;19.10;99.90;;;;;;5038202;28;20894;-51
2022/09/14 09:06:18;;;;;;;15.27;7.72;;;19.00;99.90;;;;;;5038561;28;20123;-52
2022/09/14 09:08:46;;;;;;;13.98;6.70;;;19.00;99.90;;;;;;5046709;28;20408;-51
2022/09/14 09:11:17;;;;;;;10.10;6.90;;;19.00;99.90;;;;;;5035401;28;20064;-51
2022/09/14 09:13:44;;;;;;;12.93;6.40;;;18.90;99.90;;;;;;5046878;28;20025;-52
2022/09/14 09:16:11;;;;;;;8.10;5.50;;;19.00;99.90;;;;;;5049681;28;20032;-53
2022/09/14 09:18:41;;;;;;;14.27;6.32;;;18.90;99.90;;;;;;5049460;28;20042;-52
2022/09/14 09:21:14;;;;;;;13.40;5.80;;;18.80;99.90;;;;;;5049534;28;20091;-51
2022/09/14 09:23:41;;;;;;;11.05;6.20;;;18.80;99.90;;;;;;5049957;28;20041;-51
2022/09/14 09:26:26;;;;;;;10.57;6.97;;;18.70;99.90;;;;;;5039135;28;20017;-53
2022/09/14 09:28:55;;;;;;;8.82;6.25;;;18.70;99.90;;;;;;5031765;28;20032;-52
2022/09/14 09:31:38;;;;;;;12.15;5.70;;;18.60;99.90;;;;;;5033179;28;20075;-52
2022/09/14 09:34:05;;;;;;;10.68;6.05;;;18.60;99.90;;;;;;5038392;28;20017;-52
2022/09/14 09:36:39;;;;;;;10.68;5.97;;;18.50;99.90;;;;;;5034374;28;20029;-53
2022/09/14 09:39:05;;;;;;;10.95;6.30;;;18.60;99.90;;;;;;5033861;28;20025;-52
2022/09/14 09:41:45;;;;;;;10.73;5.33;;;18.50;99.90;;;;;;5035826;28;20082;-52
2022/09/14 09:44:10;;;;;;;10.32;5.80;;;18.70;99.90;;;;;;5044567;28;20293;-52
2022/09/14 09:46:50;;;;;;;8.93;5.45;;;18.60;99.90;;;;;;5039388;28;20427;-52
2022/09/14 09:49:31;;;;;;;11.23;5.53;;;18.70;99.90;;;;;;5039341;28;20033;-52
2022/09/14 09:52:23;;;;;;;11.10;5.85;;;18.80;99.90;;;;;;5038940;28;20597;-51
2022/09/14 09:54:52;;;;;;;9.13;6.15;;;18.90;99.90;;;;;;5040618;28;20013;-52
2022/09/14 09:57:34;;;;;;;10.32;5.55;;;19.00;99.90;;;;;;5039807;28;20041;-53
2022/09/14 10:00:12;;;;;;;12.65;5.93;;;19.00;99.90;;;;;;5042714;28;20113;-53
2022/09/14 10:02:39;;;;;;;9.60;5.68;;;18.80;99.90;;;;;;5040298;28;20080;-53
2022/09/14 10:05:07;;;;;;;9.98;6.78;;;18.70;99.90;;;;;;5043851;28;20112;-53
2022/09/14 10:07:42;;;;;;;7.63;5.22;;;18.70;99.90;;;;;;5042115;28;20518;-52
2022/09/14 10:10:11;;;;;;;11.45;6.47;;;18.80;99.90;;;;;;5052500;28;20033;-53
2022/09/14 10:12:43;;;;;;;12.70;5.90;;;18.80;99.90;;;;;;5052498;28;20032;-52
2022/09/14 10:15:28;;;;;;;14.02;4.97;;;18.90;99.90;;;;;;5050905;28;20403;-53
2022/09/14 10:18:12;;;;;;;9.65;6.03;;;18.70;99.90;;;;;;5050710;28;20132;-53
2022/09/14 10:20:53;;;;;;;8.35;5.70;;;18.70;99.90;;;;;;5052155;28;20021;-53
2022/09/14 10:23:18;;;;;;;9.05;6.60;;;18.70;99.90;;;;;;5049639;28;20064;-52
2022/09/14 10:25:46;;;;;;;11.82;5.53;;;18.60;99.90;;;;;;5042239;28;20057;-53
2022/09/14 10:28:28;;;;;;;11.98;5.32;;;18.50;99.90;;;;;;5048628;28;20037;-53
2022/09/14 10:31:11;;;;;;;8.63;4.70;;;18.50;99.90;;;;;;5049212;28;20435;-53
2022/09/14 10:33:37;;;;;;;9.18;5.68;;;18.50;99.90;;;;;;5049826;28;20417;-53
2022/09/14 10:36:13;;;;;;;11.32;5.88;;;18.50;99.90;;;;;;5031886;28;20701;-52
2022/09/14 10:39:07;;;;;;;8.73;5.22;;;18.50;99.90;;;;;;5051247;28;20129;-53
2022/09/14 10:41:35;;;;;;;9.05;5.97;;;18.40;99.90;;;;;;5051874;28;20032;-53
2022/09/14 10:44:18;;;;;;;12.63;6.65;;;18.40;99.90;;;;;;5052204;28;20025;-52
2022/09/14 10:47:08;;;;;;;12.77;5.75;;;18.30;99.90;;;;;;5051792;28;20480;-52
2022/09/14 10:49:43;;;;;;;9.88;5.93;;;18.20;99.90;;;;;;5052187;28;20035;-53
2022/09/14 10:52:32;;;;;;;10.73;6.75;;;18.20;99.90;;;;;;5052525;28;20079;-53
2022/09/14 10:55:04;;;;;;;8.82;5.88;;;18.10;99.90;;;;;;5051884;28;20458;-53
2022/09/14 10:58:00;;;;;;;10.13;6.93;;;17.90;99.90;;;;;;5052435;28;20067;-53
2022/09/14 11:00:30;;;;;;;14.38;7.30;;;17.80;99.90;;;;;;5050539;28;20032;-53
2022/09/14 11:03:18;;;;;;;13.18;8.35;;;17.80;99.90;;;;;;5052233;28;20040;-53
2022/09/14 11:05:53;;;;;;;11.73;7.22;;;17.70;99.90;;;;;;5034450;28;20028;-53
2022/09/14 11:08:32;;;;;;;12.00;6.90;;;17.60;99.90;;;;;;5032818;28;20060;-52
2022/09/14 11:11:27;;;;;;;12.70;7.40;;;17.40;99.90;;;;;;5051696;28;20112;-53
2022/09/14 11:14:17;;;;;;;13.30;7.03;;;17.30;99.90;;;;;;5051840;28;20020;-53
2022/09/14 11:16:54;;;;;;;9.73;6.78;;;17.30;99.90;;;;;;5051782;28;20025;-52
2022/09/14 11:19:26;;;;;;;11.18;6.97;;;17.20;99.90;;;;;;5033837;28;20119;-52
2022/09/14 11:22:01;;;;;;;10.80;7.05;;;17.10;99.90;;;;;;5051444;28;20052;-52
2022/09/14 11:24:40;;;;;;;9.45;6.20;;;17.10;99.90;;;;;;5051798;28;20392;-52
2022/09/14 11:27:05;;;;;;;11.68;7.45;;;16.90;99.90;;;;;;5051711;28;20024;-53
2022/09/14 11:29:53;;;;;;;10.95;6.50;;;16.90;99.90;;;;;;5051438;28;20494;-52
2022/09/14 11:32:43;;;;;;;10.00;6.93;;;16.80;99.90;;;;;;5033755;28;20021;-52
2022/09/14 11:35:17;;;;;;;15.15;7.57;;;16.90;99.90;;;;;;5051553;28;20037;-52
2022/09/14 11:37:59;;;;;;;11.13;6.72;;;16.90;99.90;;;;;;5051605;28;20388;-52
2022/09/14 11:40:42;;;;;;;13.43;8.32;;;16.80;99.90;;;;;;5051070;28;20545;-51
2022/09/14 11:43:14;;;;;;;11.23;7.75;;;16.80;99.90;;;;;;5050684;28;20040;-52
2022/09/14 11:45:45;;;;;;;10.45;7.90;;;16.80;99.90;;;;;;5050767;28;20021;-52
2022/09/14 11:48:31;;;;;;;12.35;8.60;;;16.80;99.90;;;;;;5037194;28;20040;-52
2022/09/14 11:51:27;;;;;;;13.55;8.85;;;16.80;99.90;;;;;;5028157;28;20032;-52
2022/09/14 11:53:53;;;;;;;11.02;8.30;;;16.90;99.90;;;;;;5048502;28;20033;-52
2022/09/14 11:56:25;;;;;;;16.55;8.82;;;16.90;99.90;;;;;;5037108;28;20511;-52
2022/09/14 11:58:53;;;;;;;9.32;6.78;;;16.90;99.90;;;;;;5047411;28;20032;-52
2022/09/14 12:01:35;;;;;;;10.85;8.27;;;16.80;99.90;;;;;;5022785;28;20041;-52
2022/09/14 12:04:03;;;;;;;13.52;8.57;;;16.80;99.90;;;;;;5050721;28;20045;-52
2022/09/14 12:06:29;;;;;;;10.82;7.65;;;16.80;99.90;;;;;;5050235;28;20035;-53
2022/09/14 12:09:16;;;;;;;161.05;134.40;;;16.90;99.90;;;;;;5049587;28;20563;-52
2022/09/14 12:11:43;;;;;;;11.48;8.60;;;16.80;99.90;;;;;;5035619;28;20029;-53
2022/09/14 12:14:26;;;;;;;11.27;6.68;;;16.80;99.90;;;;;;5030468;28;20029;-52
2022/09/14 12:17:03;;;;;;;9.25;6.55;;;16.70;99.90;;;;;;5038536;28;20365;-52
2022/09/14 12:19:30;;;;;;;10.77;6.50;;;16.60;99.90;;;;;;5046033;28;20029;-53
2022/09/14 12:22:16;;;;;;;10.65;5.88;;;16.60;99.90;;;;;;5044020;28;20045;-53
2022/09/14 12:24:43;;;;;;;11.38;6.82;;;16.60;99.90;;;;;;5043585;28;20063;-52
2022/09/14 12:27:21;;;;;;;10.20;7.03;;;16.50;99.90;;;;;;5031241;28;20033;-52
2022/09/14 12:29:46;;;;;;;11.57;7.78;;;16.50;99.90;;;;;;5012247;28;20557;-53
2022/09/14 12:32:42;;;;;;;13.20;7.07;;;16.50;99.90;;;;;;5012245;28;20044;-52
2022/09/14 12:35:31;;;;;;;11.52;6.32;;;16.50;99.90;;;;;;5030243;28;20025;-52
2022/09/14 12:37:56;;;;;;;;;;;16.50;99.90;;;;;;5010031;28;20566;-52
2022/09/14 12:40:33;;;;;;;11.10;7.00;;;16.50;99.90;;;;;;5028041;28;20565;-54
2022/09/14 12:43:34;;;;;;;13.70;8.48;;;16.50;99.90;;;;;;5037688;28;20043;-53
2022/09/14 12:46:21;;;;;;;11.43;8.20;;;16.50;99.90;;;;;;5015616;28;20168;-53
2022/09/14 12:48:47;;;;;;;11.70;7.75;;;16.50;99.90;;;;;;5047801;28;20101;-53
2022/09/14 12:51:25;;;;;;;12.75;7.60;;;16.40;99.90;;;;;;5048839;28;20440;-53
2022/09/14 12:53:59;;;;;;;;;;;16.40;99.90;;;;;;5049674;28;20128;-54
2022/09/14 12:56:50;;;;;;;12.38;8.13;;;16.40;99.90;;;;;;5049033;28;20264;-53
2022/09/14 12:59:15;;;;;;;15.20;7.93;;;16.50;99.90;;;;;;5049163;28;20029;-53
2022/09/14 13:02:10;;;;;;;12.40;7.63;;;16.40;99.90;;;;;;5048858;28;20032;-53
2022/09/14 13:04:38;;;;;;;10.45;6.65;;;16.50;99.90;;;;;;5048283;28;20392;-53